Time,TemperatureF,DewpointF,PressureIn,WindDirection,WindDirectionDegrees,WindSpeedMPH,WindSpeedGustMPH,Humidity,HourlyPrecipIn,Conditions,Clouds,dailyrainin,SoftwareType,DateUTC
2013-04-01 09:33:00,77.0,71.0,30.08,WSW,250,3.0,7.0,83,0.00,,,0.00,,2013-04-01 13:33:00,
2013-04-01 09:43:00,77.0,71.0,30.08,WSW,250,3.0,7.0,83,0.00,,,0.00,,2013-04-01 13:43:00,
2013-04-01 09:53:00,78.0,72.0,30.08,SSE,160,1.0,8.0,81,0.00,,,0.00,,2013-04-01 13:53:00,
2013-04-01 10:04:00,79.0,72.0,30.08,South,172,3.0,7.0,79,0.00,,,0.00,,2013-04-01 14:04:00,
2013-04-01 10:12:00,79.0,72.0,30.08,South,172,3.0,7.0,79,0.00,,,0.00,,2013-04-01 14:12:00,
2013-04-01 10:22:00,79.0,72.0,30.08,SE,141,2.0,7.0,78,0.00,,,0.00,,2013-04-01 14:22:00,
2013-04-01 10:33:00,80.0,71.0,30.08,SW,220,2.0,7.0,75,0.00,,,0.00,,2013-04-01 14:33:00,
2013-04-01 10:42:00,80.0,71.0,30.08,SW,220,2.0,7.0,75,0.00,,,0.00,,2013-04-01 14:42:00,
2013-04-01 10:52:00,80.0,71.0,30.08,WSW,238,4.0,7.0,74,0.00,,,0.00,,2013-04-01 14:52:00,
2013-04-01 11:03:00,80.0,71.0,30.08,WSW,252,1.0,9.0,73,0.00,,,0.00,,2013-04-01 15:03:00,
2013-04-01 11:13:00,80.0,71.0,30.08,WSW,252,1.0,9.0,73,0.00,,,0.00,,2013-04-01 15:13:00,
2013-04-01 11:22:00,80.0,69.0,30.08,SSE,152,4.0,7.0,70,0.00,,,0.00,,2013-04-01 15:22:00,
2013-04-01 11:34:00,80.0,70.0,30.08,WSW,246,4.0,8.0,71,0.00,,,0.00,,2013-04-01 15:34:00,
2013-04-01 11:43:00,80.0,70.0,30.08,WSW,246,4.0,8.0,71,0.00,,,0.00,,2013-04-01 15:43:00,
2013-04-01 11:54:00,80.0,70.0,30.08,WSW,246,4.0,8.0,71,0.00,,,0.00,,2013-04-01 15:54:00,
2013-04-01 12:03:00,81.0,66.0,30.07,WSW,249,1.0,7.0,60,0.00,,,0.00,,2013-04-01 16:03:00,
2013-04-01 12:13:00,81.0,66.0,30.07,WSW,249,1.0,7.0,60,0.00,,,0.00,,2013-04-01 16:13:00,
2013-04-01 12:23:00,82.0,68.0,30.06,West,279,2.0,7.0,63,0.00,,,0.00,,2013-04-01 16:23:00,
2013-04-01 12:33:00,82.0,66.0,30.06,WNW,283,4.0,7.0,59,0.00,,,0.00,,2013-04-01 16:33:00,
2013-04-01 12:43:00,82.0,66.0,30.06,WNW,283,4.0,7.0,59,0.00,,,0.00,,2013-04-01 16:43:00,
2013-04-01 12:53:00,82.0,67.0,30.06,West,267,5.0,9.0,60,0.00,,,0.00,,2013-04-01 16:53:00,
2013-04-01 13:03:00,83.0,67.0,30.05,West,260,2.0,7.0,58,0.00,,,0.00,,2013-04-01 17:03:00,
2013-04-01 13:13:00,83.0,67.0,30.05,West,260,2.0,7.0,58,0.00,,,0.00,,2013-04-01 17:13:00,
2013-04-01 13:23:00,84.0,67.0,30.05,SW,233,5.0,10.0,56,0.00,,,0.00,,2013-04-01 17:23:00,
2013-04-01 13:32:00,84.0,67.0,30.05,SW,233,5.0,10.0,56,0.00,,,0.00,,2013-04-01 17:32:00,
2013-04-01 13:42:00,84.0,67.0,30.05,SW,233,5.0,10.0,56,0.00,,,0.00,,2013-04-01 17:42:00,
2013-04-01 13:53:00,84.0,68.0,30.04,SSW,213,3.0,8.0,58,0.00,,,0.00,,2013-04-01 17:53:00,
2013-04-01 14:03:00,84.0,65.0,30.02,West,271,5.0,14.0,53,0.00,,,0.00,,2013-04-01 18:03:00,
2013-04-01 14:12:00,84.0,65.0,30.02,West,271,5.0,14.0,53,0.00,,,0.00,,2013-04-01 18:12:00,
2013-04-01 14:22:00,84.0,66.0,30.02,West,270,3.0,10.0,54,0.00,,,0.00,,2013-04-01 18:22:00,
2013-04-01 14:33:00,80.0,66.0,30.02,WSW,245,5.0,12.0,63,0.00,,,0.00,,2013-04-01 18:33:00,
2013-04-01 14:43:00,80.0,66.0,30.02,WSW,245,5.0,12.0,63,0.00,,,0.00,,2013-04-01 18:43:00,
2013-04-01 14:53:00,79.0,67.0,30.02,SE,134,4.0,14.0,67,0.00,,,0.00,,2013-04-01 18:53:00,
2013-04-01 15:03:00,79.0,68.0,30.03,WSW,243,3.0,9.0,69,0.00,,,0.00,,2013-04-01 19:03:00,
2013-04-01 15:13:00,79.0,68.0,30.03,WSW,243,3.0,9.0,69,0.00,,,0.00,,2013-04-01 19:13:00,
2013-04-01 15:23:00,77.0,68.0,30.02,SW,225,4.0,10.0,74,0.00,,,0.00,,2013-04-01 19:23:00,
2013-04-01 15:32:00,77.0,69.0,30.01,SSW,208,3.0,11.0,77,0.00,,,0.00,,2013-04-01 19:32:00,
2013-04-01 15:42:00,77.0,69.0,30.01,SSW,208,3.0,11.0,77,0.00,,,0.00,,2013-04-01 19:42:00,
2013-04-01 15:53:00,76.0,67.0,30.01,SSW,211,3.0,15.0,74,0.00,,,0.00,,2013-04-01 19:53:00,
2013-04-01 16:02:00,75.0,66.0,30.01,SSE,150,3.0,11.0,73,0.00,,,0.00,,2013-04-01 20:02:00,
2013-04-01 16:13:00,75.0,66.0,30.01,SSE,150,3.0,11.0,73,0.00,,,0.00,,2013-04-01 20:13:00,
2013-04-01 16:23:00,77.0,67.0,30.01,SW,225,3.0,11.0,71,0.00,,,0.00,,2013-04-01 20:23:00,
2013-04-01 16:33:00,76.0,65.0,30.01,SSE,168,3.0,8.0,70,0.00,,,0.00,,2013-04-01 20:33:00,
2013-04-01 16:43:00,76.0,65.0,30.01,SSE,168,3.0,8.0,70,0.00,,,0.00,,2013-04-01 20:43:00,
2013-04-01 16:52:00,78.0,66.0,30.00,East,96,0.0,7.0,67,0.00,,,0.00,,2013-04-01 20:52:00,
2013-04-01 17:02:00,78.0,67.0,30.00,SW,231,2.0,8.0,68,0.00,,,0.00,,2013-04-01 21:02:00,
2013-04-01 17:12:00,78.0,67.0,30.00,SW,231,2.0,8.0,68,0.00,,,0.00,,2013-04-01 21:12:00,
2013-04-01 17:23:00,80.0,68.0,29.99,SE,124,2.0,6.0,66,0.00,,,0.00,,2013-04-01 21:23:00,
2013-04-01 17:32:00,81.0,68.0,29.98,SW,218,2.0,5.0,64,0.00,,,0.00,,2013-04-01 21:32:00,
2013-04-01 17:43:00,81.0,68.0,29.98,SW,218,2.0,5.0,64,0.00,,,0.00,,2013-04-01 21:43:00,
2013-04-01 17:52:00,82.0,68.0,29.98,SSW,208,3.0,7.0,63,0.00,,,0.00,,2013-04-01 21:52:00,
2013-04-01 18:03:00,83.0,68.0,29.98,West,276,3.0,6.0,61,0.00,,,0.00,,2013-04-01 22:03:00,
2013-04-01 18:12:00,83.0,68.0,29.98,West,276,3.0,6.0,61,0.00,,,0.00,,2013-04-01 22:12:00,
2013-04-01 18:23:00,81.0,66.0,29.99,SSW,192,3.0,9.0,61,0.00,,,0.00,,2013-04-01 22:23:00,
2013-04-01 18:33:00,81.0,65.0,30.00,South,170,2.0,7.0,59,0.00,,,0.00,,2013-04-01 22:33:00,
2013-04-01 18:43:00,81.0,65.0,30.00,South,170,2.0,7.0,59,0.00,,,0.00,,2013-04-01 22:43:00,
2013-04-01 18:52:00,80.0,65.0,30.00,WSW,240,1.0,6.0,61,0.00,,,0.00,,2013-04-01 22:52:00,
2013-04-01 19:02:00,81.0,66.0,30.00,SE,143,0.0,4.0,60,0.00,,,0.00,,2013-04-01 23:02:00,
2013-04-01 19:12:00,81.0,66.0,30.00,SE,143,0.0,4.0,60,0.00,,,0.00,,2013-04-01 23:12:00,
2013-04-01 19:23:00,80.0,66.0,30.01,South,170,0.0,5.0,62,0.00,,,0.00,,2013-04-01 23:23:00,
2013-04-01 19:32:00,79.0,65.0,30.01,East,90,0.0,2.0,62,0.00,,,0.00,,2013-04-01 23:32:00,
2013-04-01 19:43:00,79.0,65.0,30.01,East,90,0.0,2.0,62,0.00,,,0.00,,2013-04-01 23:43:00,
2013-04-01 19:53:00,78.0,65.0,30.01,East,101,0.0,2.0,64,0.00,,,0.00,,2013-04-01 23:53:00,
2013-04-01 20:03:00,77.0,65.0,30.01,SSW,198,0.0,3.0,66,0.00,,,0.00,,2013-04-02 00:03:00,
2013-04-01 20:12:00,77.0,65.0,30.01,SSW,198,0.0,3.0,66,0.00,,,0.00,,2013-04-02 00:12:00,
2013-04-01 20:22:00,77.0,65.0,30.02,East,96,0.0,1.0,67,0.00,,,0.00,,2013-04-02 00:22:00,
2013-04-01 20:33:00,77.0,65.0,30.02,East,91,0.0,2.0,67,0.00,,,0.00,,2013-04-02 00:33:00,
2013-04-01 20:42:00,77.0,65.0,30.02,East,91,0.0,2.0,67,0.00,,,0.00,,2013-04-02 00:42:00,
2013-04-01 20:53:00,77.0,65.0,30.03,East,99,0.0,1.0,67,0.00,,,0.00,,2013-04-02 00:53:00,
2013-04-01 21:02:00,76.0,65.0,30.02,SSW,210,0.0,1.0,69,0.00,,,0.00,,2013-04-02 01:02:00,
2013-04-01 21:12:00,76.0,65.0,30.02,SSW,210,0.0,1.0,69,0.00,,,0.00,,2013-04-02 01:12:00,
2013-04-01 21:22:00,76.0,65.0,30.02,SSW,211,0.0,1.0,70,0.00,,,0.00,,2013-04-02 01:22:00,
2013-04-01 21:32:00,75.0,65.0,30.03,SW,232,0.0,1.0,72,0.00,,,0.00,,2013-04-02 01:32:00,
2013-04-01 21:42:00,75.0,65.0,30.03,SW,232,0.0,1.0,72,0.00,,,0.00,,2013-04-02 01:42:00,
2013-04-01 21:52:00,75.0,66.0,30.03,WNW,283,0.0,1.0,74,0.00,,,0.00,,2013-04-02 01:52:00,
2013-04-01 22:03:00,75.0,66.0,30.04,West,276,0.0,1.0,74,0.00,,,0.00,,2013-04-02 02:03:00,
2013-04-01 22:12:00,75.0,66.0,30.04,West,276,0.0,1.0,74,0.00,,,0.00,,2013-04-02 02:12:00,
2013-04-01 22:22:00,74.0,66.0,30.04,WSW,246,1.0,2.0,76,0.00,,,0.00,,2013-04-02 02:22:00,
2013-04-01 22:32:00,74.0,66.0,30.04,West,264,1.0,3.0,77,0.00,,,0.00,,2013-04-02 02:32:00,
2013-04-01 22:42:00,74.0,66.0,30.04,West,264,1.0,3.0,77,0.00,,,0.00,,2013-04-02 02:42:00,
2013-04-01 22:53:00,74.0,67.0,30.05,West,278,1.0,3.0,79,0.00,,,0.00,,2013-04-02 02:53:00,
2013-04-01 23:02:00,74.0,67.0,30.05,West,276,1.0,3.0,80,0.00,,,0.00,,2013-04-02 03:02:00,
2013-04-01 23:12:00,74.0,67.0,30.05,West,276,1.0,3.0,80,0.00,,,0.00,,2013-04-02 03:12:00,
2013-04-01 23:22:00,73.0,67.0,30.05,WSW,239,0.0,3.0,81,0.00,,,0.00,,2013-04-02 03:22:00,
2013-04-01 23:33:00,73.0,67.0,30.05,West,278,0.0,1.0,82,0.00,,,0.00,,2013-04-02 03:33:00,
2013-04-01 23:43:00,73.0,67.0,30.05,West,278,0.0,1.0,82,0.00,,,0.00,,2013-04-02 03:43:00,
2013-04-01 23:53:00,72.0,67.0,30.05,West,277,0.0,1.0,84,0.00,,,0.00,,2013-04-02 03:53:00,